Time;durP1;ratioP1;P1;durP2;ratioP2;P2;SDS_P1;SDS_P2;PMS_P1;PMS_P2;Temp;Humidity;BMP_temperature;BMP_pressure;BME280_temperature;BME280_humidity;BME280_pressure;Samples;Min_cycle;Max_cycle;Signal;HPM_P1;HPM_P2
2022/06/03 00:01:42;;;;;;;;;;;22.10;57.10;;;;;;6131959;23;20269;-86
2022/06/03 00:04:29;;;;;;;;;;;22.10;56.80;;;;;;6133048;23;19952;-85
2022/06/03 00:07:04;;;;;;;;;;;22.10;56.90;;;;;;6122214;23;19933;-85
2022/06/03 00:09:37;;;;;;;;;;;22.10;56.70;;;;;;6132323;23;20350;-87
2022/06/03 00:12:16;;;;;;;;;;;22.00;56.80;;;;;;6131403;23;19967;-81
2022/06/03 00:14:55;;;;;;;;;;;22.00;56.50;;;;;;6130930;23;20269;-80
2022/06/03 00:17:36;;;;;;;;;;;22.00;56.40;;;;;;6133368;23;19925;-85
2022/06/03 00:20:06;;;;;;;;;;;22.00;56.70;;;;;;6134796;23;19924;-80
2022/06/03 00:22:33;;;;;;;;;;;22.10;56.10;;;;;;6132359;23;19921;-85
2022/06/03 00:25:19;;;;;;;;;;;22.00;56.20;;;;;;6134527;23;19921;-87
2022/06/03 00:27:49;;;;;;;;;;;22.00;56.20;;;;;;6135527;23;19929;-84
2022/06/03 00:30:34;;;;;;;;;;;22.00;56.50;;;;;;6132151;23;19924;-86
2022/06/03 00:33:07;;;;;;;;;;;22.00;56.20;;;;;;6131670;23;19931;-82
2022/06/03 00:35:37;;;;;;;;;;;22.00;56.40;;;;;;6130067;23;19927;-81
2022/06/03 00:38:09;;;;;;;;;;;21.90;56.40;;;;;;6131736;23;19976;-84
2022/06/03 00:40:39;;;;;;;;;;;21.90;56.50;;;;;;6131464;23;20312;-87
2022/06/03 00:43:15;;;;;;;;;;;21.90;56.40;;;;;;6132235;23;19979;-88
2022/06/03 00:45:45;;;;;;;;;;;21.90;56.20;;;;;;6157364;23;19968;-83
2022/06/03 00:48:30;;;;;;;;;;;21.90;56.50;;;;;;6131811;23;19921;-87
2022/06/03 00:51:12;;;;;;;;;;;21.90;56.30;;;;;;6131585;23;19920;-84
2022/06/03 00:53:45;;;;;;;;;;;22.00;55.80;;;;;;6130990;23;19921;-84
2022/06/03 00:56:21;;;;;;;;;;;21.90;55.80;;;;;;6131875;23;19920;-84
2022/06/03 00:59:04;;;;;;;;;;;21.90;55.80;;;;;;6130930;23;19920;-83
2022/06/03 01:02:00;;;;;;;;;;;21.90;55.80;;;;;;6132018;23;19924;-84
2022/06/03 01:04:33;;;;;;;;;;;22.00;55.80;;;;;;6131915;23;19925;-83
2022/06/03 01:07:19;;;;;;;;;;;21.90;55.90;;;;;;6131624;23;19920;-81
2022/06/03 01:09:53;;;;;;;;;;;21.90;55.80;;;;;;6130975;23;20273;-82
2022/06/03 01:12:28;;;;;;;;;;;21.90;55.90;;;;;;6131022;23;19964;-80
2022/06/03 01:15:01;;;;;;;;;;;21.90;55.80;;;;;;6131093;23;19943;-83
2022/06/03 01:17:27;;;;;;;;;;;21.80;56.00;;;;;;6156752;23;19921;-80
2022/06/03 01:20:06;;;;;;;;;;;21.80;56.10;;;;;;6132427;23;19963;-84
2022/06/03 01:22:36;;;;;;;;;;;21.80;56.20;;;;;;6131782;23;19927;-85
2022/06/03 01:25:03;;;;;;;;;;;21.70;56.40;;;;;;6131397;23;19921;-83
2022/06/03 01:27:56;;;;;;;;;;;21.70;56.30;;;;;;6130700;23;19920;-80
2022/06/03 01:30:29;;;;;;;;;;;21.70;56.30;;;;;;6109751;23;19952;-87
2022/06/03 01:32:56;;;;;;;;;;;21.70;56.60;;;;;;6130930;23;19967;-81
2022/06/03 01:35:40;;;;;;;;;;;21.60;56.80;;;;;;6131553;23;19928;-87
2022/06/03 01:38:12;;;;;;;;;;;21.60;56.80;;;;;;6132482;23;19924;-85
2022/06/03 01:40:39;;;;;;;;;;;21.60;56.70;;;;;;6132157;23;19920;-81
2022/06/03 01:43:11;;;;;;;;;;;21.60;56.80;;;;;;6130884;23;20361;-81
2022/06/03 01:45:38;;;;;;;;;;;21.60;56.80;;;;;;6159360;23;19921;-86
2022/06/03 01:48:25;;;;;;;;;;;21.50;57.00;;;;;;6157210;23;19934;-81
2022/06/03 01:51:01;;;;;;;;;;;21.50;57.00;;;;;;6131657;23;19968;-86
2022/06/03 01:53:34;;;;;;;;;;;21.50;57.60;;;;;;6130568;23;19921;-80
2022/06/03 01:56:19;;;;;;;;;;;21.40;57.50;;;;;;6130890;23;20289;-79
2022/06/03 01:59:05;;;;;;;;;;;21.40;57.50;;;;;;6156678;23;19921;-80
2022/06/03 02:01:32;;;;;;;;;;;21.40;57.60;;;;;;6130609;23;19921;-80
2022/06/03 02:04:02;;;;;;;;;;;21.40;57.70;;;;;;6130837;23;19925;-86
2022/06/03 02:06:58;;;;;;;;;;;21.40;57.60;;;;;;6131348;23;19929;-84
2022/06/03 02:09:36;;;;;;;;;;;21.40;57.60;;;;;;6120344;23;19921;-84
2022/06/03 02:12:35;;;;;;;;;;;21.40;57.60;;;;;;6131033;23;19930;-84
2022/06/03 02:15:08;;;;;;;;;;;21.40;57.40;;;;;;6099309;23;19920;-79
2022/06/03 02:17:54;;;;;;;;;;;21.40;57.60;;;;;;6131979;23;19924;-84
2022/06/03 02:20:39;;;;;;;;;;;21.40;57.70;;;;;;6136295;23;19920;-80
2022/06/03 02:23:31;;;;;;;;;;;21.40;57.50;;;;;;6133677;23;19920;-85
2022/06/03 02:26:10;;;;;;;;;;;21.40;57.60;;;;;;6157914;23;19921;-88
2022/06/03 02:30:24;;;;;;;;;;;21.40;57.60;;;;;;6132004;23;19920;-81
2022/06/03 02:32:01;;;;;;;;;;;21.40;57.50;;;;;;6159694;23;20257;-86
2022/06/03 02:34:42;;;;;;;;;;;21.40;58.60;;;;;;6134350;23;19920;-84
2022/06/03 02:37:17;;;;;;;;;;;21.40;57.70;;;;;;6133353;23;19921;-84
2022/06/03 02:39:46;;;;;;;;;;;21.40;57.60;;;;;;6158706;23;19944;-83
2022/06/03 02:42:32;;;;;;;;;;;21.30;57.60;;;;;;6130136;23;19921;-82
2022/06/03 02:45:13;;;;;;;;;;;21.30;57.60;;;;;;6131997;23;20234;-80
2022/06/03 02:48:10;;;;;;;;;;;21.30;57.60;;;;;;6134487;23;19925;-81
2022/06/03 02:50:40;;;;;;;;;;;21.30;57.60;;;;;;6136624;23;19925;-83
2022/06/03 02:53:07;;;;;;;;;;;21.30;57.40;;;;;;6134260;23;19936;-87
2022/06/03 02:55:46;;;;;;;;;;;21.30;57.20;;;;;;6132711;23;19920;-87
2022/06/03 02:58:36;;;;;;;;;;;21.30;57.30;;;;;;6132900;23;19971;-83
2022/06/03 03:01:02;;;;;;;;;;;21.30;57.00;;;;;;6125935;23;19920;-83
2022/06/03 03:03:43;;;;;;;;;;;21.30;57.20;;;;;;6133141;23;20412;-84
2022/06/03 03:06:22;;;;;;;;;;;21.30;57.50;;;;;;6131430;23;19925;-83
2022/06/03 03:09:07;;;;;;;;;;;21.30;57.50;;;;;;6133308;23;19921;-87
2022/06/03 03:11:43;;;;;;;;;;;21.30;57.50;;;;;;6133922;23;19928;-83
2022/06/03 03:14:28;;;;;;;;;;;21.20;57.80;;;;;;6132358;23;19925;-84
2022/06/03 03:16:55;;;;;;;;;;;21.20;57.80;;;;;;6132556;23;20425;-83
2022/06/03 03:19:28;;;;;;;;;;;21.20;57.60;;;;;;6132919;23;19971;-83
2022/06/03 03:22:13;;;;;;;;;;;21.20;57.60;;;;;;6132858;23;19930;-83
2022/06/03 03:24:56;;;;;;;;;;;21.10;57.50;;;;;;6132860;23;19920;-82
2022/06/03 03:27:26;;;;;;;;;;;21.10;57.50;;;;;;6132790;23;19959;-86
2022/06/03 03:29:52;;;;;;;;;;;21.00;57.60;;;;;;6134599;23;19921;-83
2022/06/03 03:32:29;;;;;;;;;;;21.00;57.60;;;;;;6159982;23;20422;-86
2022/06/03 03:35:02;;;;;;;;;;;21.00;57.90;;;;;;6132664;23;19932;-82
2022/06/03 03:37:46;;;;;;;;;;;21.00;58.10;;;;;;6133831;23;19924;-80
2022/06/03 03:40:19;;;;;;;;;;;21.00;58.10;;;;;;6133917;23;19921;-84
2022/06/03 03:43:05;;;;;;;;;;;20.90;57.90;;;;;;6132009;23;19920;-85
2022/06/03 03:45:51;;;;;;;;;;;21.00;58.10;;;;;;6134103;23;19921;-82
2022/06/03 03:48:44;;;;;;;;;;;20.90;58.20;;;;;;6132263;23;19987;-80
2022/06/03 03:51:23;;;;;;;;;;;20.90;58.10;;;;;;6131668;23;19921;-81
2022/06/03 03:54:02;;;;;;;;;;;20.90;58.10;;;;;;6131948;23;19924;-80
2022/06/03 03:56:48;;;;;;;;;;;20.90;58.30;;;;;;6159610;23;19928;-80
2022/06/03 03:59:33;;;;;;;;;;;20.90;58.30;;;;;;6131773;23;20312;-80
2022/06/03 04:02:19;;;;;;;;;;;21.00;58.40;;;;;;6132593;23;19932;-86
2022/06/03 04:04:49;;;;;;;;;;;21.00;58.50;;;;;;6131916;23;19920;-79
2022/06/03 04:07:22;;;;;;;;;;;21.00;58.40;;;;;;6130796;23;19921;-86
2022/06/03 04:09:51;;;;;;;;;;;21.00;58.50;;;;;;6132308;23;19920;-80
2022/06/03 04:12:27;;;;;;;;;;;20.90;58.90;;;;;;6131554;23;20375;-86
2022/06/03 04:14:57;;;;;;;;;;;20.90;58.70;;;;;;6131230;23;19920;-83
2022/06/03 04:17:45;;;;;;;;;;;21.00;58.50;;;;;;6157028;23;19920;-84
2022/06/03 04:20:32;;;;;;;;;;;21.00;58.60;;;;;;6131600;23;19921;-83
2022/06/03 04:23:14;;;;;;;;;;;21.00;58.50;;;;;;6102417;23;20375;-86
2022/06/03 04:25:41;;;;;;;;;;;21.00;58.80;;;;;;6157116;23;20269;-83
2022/06/03 04:28:31;;;;;;;;;;;20.90;58.60;;;;;;6132018;23;19929;-82
2022/06/03 04:31:07;;;;;;;;;;;20.90;58.80;;;;;;6131283;23;20415;-80
2022/06/03 04:34:01;;;;;;;;;;;20.90;59.00;;;;;;6131100;23;19959;-81
2022/06/03 04:36:34;;;;;;;;;;;20.90;59.10;;;;;;6109714;23;19924;-83
2022/06/03 04:39:16;;;;;;;;;;;20.90;59.20;;;;;;6131041;23;19944;-84
2022/06/03 04:41:52;;;;;;;;;;;20.90;59.00;;;;;;6131536;23;19920;-80
2022/06/03 04:44:37;;;;;;;;;;;20.90;59.10;;;;;;6131157;23;19973;-86
2022/06/03 04:47:13;;;;;;;;;;;20.90;59.50;;;;;;6131416;23;19932;-81
2022/06/03 04:49:59;;;;;;;;;;;20.90;59.30;;;;;;6131248;23;19971;-83
2022/06/03 04:52:58;;;;;;;;;;;20.90;59.60;;;;;;6135138;23;19964;-86
2022/06/03 04:55:28;;;;;;;;;;;20.90;59.30;;;;;;6130808;23;20334;-86
2022/06/03 04:58:13;;;;;;;;;;;20.90;59.40;;;;;;6130298;23;19925;-84
2022/06/03 05:00:40;;;;;;;;;;;20.90;59.50;;;;;;6156998;23;19924;-84
2022/06/03 05:03:13;;;;;;;;;;;20.90;59.50;;;;;;6131660;23;19921;-83
2022/06/03 05:06:00;;;;;;;;;;;20.90;59.60;;;;;;6131075;23;20253;-81
2022/06/03 05:08:26;;;;;;;;;;;20.90;59.70;;;;;;6131593;23;19967;-83
2022/06/03 05:11:12;;;;;;;;;;;20.90;59.90;;;;;;6131481;23;19952;-82
2022/06/03 05:13:42;;;;;;;;;;;20.90;60.00;;;;;;6132706;23;19921;-83
2022/06/03 05:16:27;;;;;;;;;;;20.90;60.00;;;;;;6131456;23;19920;-83
2022/06/03 05:18:55;;;;;;;;;;;21.00;59.60;;;;;;6131075;23;19948;-83
2022/06/03 05:21:27;;;;;;;;;;;21.00;59.60;;;;;;6131339;23;19924;-82
2022/06/03 05:24:05;;;;;;;;;;;21.00;59.70;;;;;;6157699;23;19921;-83
2022/06/03 05:26:47;;;;;;;;;;;21.00;59.90;;;;;;6131876;23;19921;-84
2022/06/03 05:29:26;;;;;;;;;;;21.00;59.60;;;;;;6130644;23;19921;-82
2022/06/03 05:31:59;;;;;;;;;;;21.00;59.60;;;;;;6130939;23;19975;-85
2022/06/03 05:34:26;;;;;;;;;;;21.10;60.00;;;;;;6130889;23;19920;-83
2022/06/03 05:37:01;;;;;;;;;;;21.10;60.20;;;;;;6130546;23;20348;-82
2022/06/03 05:39:28;;;;;;;;;;;21.10;60.20;;;;;;6130967;23;19924;-80
2022/06/03 05:44:40;;;;;;;;;;;21.10;60.70;;;;;;6156556;23;19920;-80
2022/06/03 05:47:17;;;;;;;;;;;21.20;60.70;;;;;;6156430;23;19928;-83
2022/06/03 05:49:52;;;;;;;;;;;21.30;60.40;;;;;;6131029;23;19943;-81
2022/06/03 05:52:22;;;;;;;;;;;21.30;60.60;;;;;;6130859;23;20787;-83
2022/06/03 05:55:15;;;;;;;;;;;21.40;60.10;;;;;;6131491;23;19921;-80
2022/06/03 05:58:01;;;;;;;;;;;21.40;60.40;;;;;;6123872;23;19921;-80
2022/06/03 06:00:36;;;;;;;;;;;21.40;60.30;;;;;;6131244;23;19971;-80
2022/06/03 06:03:22;;;;;;;;;;;21.50;60.20;;;;;;6130275;23;19921;-81
2022/06/03 06:06:07;;;;;;;;;;;21.50;60.20;;;;;;6128443;23;19924;-81
2022/06/03 06:08:34;;;;;;;;;;;21.60;59.90;;;;;;6130452;23;19928;-80
2022/06/03 06:11:06;;;;;;;;;;;21.70;59.50;;;;;;6128238;23;19920;-83
2022/06/03 06:13:36;;;;;;;;;;;21.70;59.40;;;;;;6130266;23;19920;-84
2022/06/03 06:16:20;;;;;;;;;;;21.70;59.80;;;;;;6125362;23;19924;-79
2022/06/03 06:18:56;;;;;;;;;;;21.70;59.80;;;;;;6126117;23;19920;-84
2022/06/03 06:21:23;;;;;;;;;;;21.80;59.30;;;;;;6154699;23;19975;-80
2022/06/03 06:24:09;;;;;;;;;;;21.80;59.40;;;;;;6131872;23;19932;-86
2022/06/03 06:27:18;;;;;;;;;;;21.80;59.70;;;;;;6132939;23;19920;-85
2022/06/03 06:29:45;;;;;;;;;;;21.80;59.60;;;;;;6073435;23;19929;-80
2022/06/03 06:32:30;;;;;;;;;;;21.90;59.70;;;;;;6072984;23;19981;-83
2022/06/03 06:35:07;;;;;;;;;;;22.00;59.90;;;;;;6110312;23;19921;-83
2022/06/03 06:37:37;;;;;;;;;;;22.10;59.60;;;;;;6132189;23;19991;-80
2022/06/03 06:40:07;;;;;;;;;;;22.10;59.30;;;;;;6132697;23;19964;-86
2022/06/03 06:42:46;;;;;;;;;;;22.20;59.20;;;;;;6132370;23;19927;-80
2022/06/03 06:45:22;;;;;;;;;;;22.30;59.10;;;;;;6132794;23;19920;-83
2022/06/03 06:47:59;;;;;;;;;;;22.40;58.20;;;;;;6132763;23;19931;-83
2022/06/03 06:50:29;;;;;;;;;;;22.40;58.20;;;;;;6132193;23;20388;-79
2022/06/03 06:53:05;;;;;;;;;;;22.40;58.20;;;;;;6132269;23;19925;-80
2022/06/03 06:55:32;;;;;;;;;;;22.40;58.10;;;;;;6131963;23;19925;-82
2022/06/03 06:58:01;;;;;;;;;;;22.50;58.30;;;;;;6132211;23;20242;-87
2022/06/03 07:00:39;;;;;;;;;;;22.60;58.10;;;;;;6132392;23;19932;-85
2022/06/03 07:03:12;;;;;;;;;;;22.60;57.90;;;;;;6133685;23;19996;-84
2022/06/03 07:05:51;;;;;;;;;;;22.60;58.10;;;;;;6131595;23;20357;-85
2022/06/03 07:08:18;;;;;;;;;;;22.70;58.00;;;;;;6131623;23;19971;-84
2022/06/03 07:10:49;;;;;;;;;;;22.70;57.90;;;;;;6127215;23;19979;-83
2022/06/03 07:13:24;;;;;;;;;;;22.70;57.70;;;;;;6127363;23;20261;-80
2022/06/03 07:15:57;;;;;;;;;;;22.70;58.30;;;;;;6129505;23;19925;-80
2022/06/03 07:21:31;;;;;;;;;;;22.80;58.80;;;;;;6149691;23;20228;-83
2022/06/03 07:35:47;;;;;;;;;;;22.70;58.40;;;;;;5106654;28;20026;-84
2022/06/03 07:38:29;;;;;;;;;;;22.40;62.40;;;;;;5059489;28;19928;-81
2022/06/03 07:41:03;;;;;;;;;;;22.30;62.60;;;;;;5059166;28;19928;-83
2022/06/03 07:43:35;;;;;;;;;;;22.20;62.70;;;;;;5068238;28;20050;-81
2022/06/03 07:46:05;;;;;;;;;;;22.20;63.00;;;;;;5071552;28;20046;-82
2022/06/03 07:48:33;;;;;;;;;;;22.10;64.00;;;;;;5074088;28;20277;-80
2022/06/03 07:51:00;;;;;;;;;;;22.00;64.80;;;;;;5072865;28;19971;-84
2022/06/03 07:53:40;;;;;;;;;;;21.90;67.40;;;;;;5060574;28;19931;-84
2022/06/03 07:56:07;;;;;;;;;;;21.80;68.20;;;;;;5072099;28;19979;-85
2022/06/03 07:58:37;;;;;;;;;;;21.60;69.80;;;;;;5076790;28;19925;-84
2022/06/03 08:01:05;;;;;;;;;;;21.50;71.80;;;;;;5065276;28;20071;-84
2022/06/03 08:03:34;;;;;;;;;;;21.30;72.90;;;;;;5065802;28;19951;-79
2022/06/03 08:06:03;;;;;;;;;;;21.20;74.10;;;;;;5075902;28;19929;-86
2022/06/03 08:11:16;;;;;;;;;;;21.00;75.20;;;;;;5080011;28;20376;-85
2022/06/03 08:13:47;;;;;;;;;;;20.90;76.50;;;;;;5085996;28;20053;-83
2022/06/03 08:16:18;;;;;;;;;;;20.90;78.80;;;;;;5065638;28;19931;-83
2022/06/03 08:18:45;;;;;;;;;;;20.80;80.60;;;;;;5070171;28;19928;-80
2022/06/03 08:21:19;;;;;;;;;;;20.70;79.80;;;;;;5063357;28;20023;-79
2022/06/03 08:23:46;;;;;;;;;;;20.60;81.60;;;;;;5069831;28;19989;-88
2022/06/03 08:26:16;;;;;;;;;;;20.60;81.80;;;;;;5069601;28;19928;-80
2022/06/03 08:28:45;;;;;;;;;;;20.50;82.30;;;;;;5071309;28;19925;-81
2022/06/03 08:31:12;;;;;;;;;;;20.50;81.90;;;;;;5076118;28;19924;-79
2022/06/03 08:33:41;;;;;;;;;;;20.50;82.20;;;;;;5076941;28;19986;-86
2022/06/03 08:36:10;;;;;;;;;;;20.50;82.50;;;;;;5070235;28;19951;-79
2022/06/03 08:38:57;;;;;;;;;;;20.50;84.10;;;;;;5071837;28;19924;-84
2022/06/03 08:41:39;;;;;;;;;;;20.50;84.10;;;;;;5064504;28;19925;-85
2022/06/03 08:44:08;;;;;;;;;;;20.50;84.90;;;;;;5064745;28;19952;-85
2022/06/03 08:46:37;;;;;;;;;;;20.40;85.30;;;;;;5071055;28;19929;-85
2022/06/03 08:49:07;;;;;;;;;;;20.40;85.40;;;;;;5070027;28;20379;-81
2022/06/03 08:51:44;;;;;;;;;;;20.40;85.60;;;;;;5058560;23;19929;-80
2022/06/03 08:54:12;;;;;;;;;;;20.40;86.10;;;;;;5037976;28;19929;-85
2022/06/03 08:56:42;;;;;;;;;;;20.40;86.10;;;;;;5040777;28;19925;-81
2022/06/03 08:59:12;;;;;;;;;;;20.40;86.70;;;;;;5047859;28;19965;-86
2022/06/03 09:02:11;;;;;;;;;;;20.40;87.30;;;;;;5042758;28;19979;-84
2022/06/03 09:04:40;;;;;;;;;;;20.30;87.40;;;;;;5005475;28;19979;-86
2022/06/03 09:07:13;;;;;;;;;;;20.20;86.80;;;;;;5028345;28;19925;-85
2022/06/03 09:09:45;;;;;;;;;;;20.00;86.20;;;;;;5039219;28;19937;-87
2022/06/03 09:12:38;;;;;;;;;;;20.00;86.10;;;;;;5033860;28;19925;-82
2022/06/03 09:15:08;;;;;;;;;;;19.90;86.30;;;;;;5021000;28;19933;-82
2022/06/03 09:17:42;;;;;;;;;;;19.80;86.80;;;;;;5018828;28;19925;-85
2022/06/03 09:20:09;;;;;;;;;;;19.80;87.10;;;;;;5022166;28;19932;-81
2022/06/03 09:22:36;;;;;;;;;;;19.80;87.10;;;;;;5019711;28;19925;-80
2022/06/03 09:25:06;;;;;;;;;;;19.80;87.10;;;;;;5025700;28;19925;-85
2022/06/03 09:27:34;;;;;;;;;;;19.80;87.70;;;;;;5034386;28;19925;-86
2022/06/03 09:30:03;;;;;;;;;;;19.80;87.50;;;;;;5023105;28;19925;-84
2022/06/03 09:32:34;;;;;;;;;;;19.80;87.50;;;;;;5033950;28;19933;-80
2022/06/03 09:35:04;;;;;;;;;;;19.80;87.70;;;;;;5016750;28;20378;-82
2022/06/03 09:37:34;;;;;;;;;;;19.80;87.50;;;;;;5022147;28;19929;-85
2022/06/03 09:40:03;;;;;;;;;;;19.70;87.70;;;;;;5033464;28;19932;-82
2022/06/03 09:42:31;;;;;;;;;;;19.70;88.20;;;;;;5034429;28;20337;-81
2022/06/03 09:45:01;;;;;;;;;;;19.70;88.50;;;;;;5019739;28;19939;-85
2022/06/03 09:47:28;;;;;;;;;;;19.70;88.70;;;;;;5022023;28;20352;-86
2022/06/03 09:49:55;;;;;;;;;;;19.70;88.90;;;;;;5024862;28;19948;-86
2022/06/03 09:52:23;;;;;;;;;;;19.70;89.20;;;;;;5034128;28;19948;-85
2022/06/03 09:54:52;;;;;;;;;;;19.70;89.40;;;;;;5019544;28;19925;-86
2022/06/03 09:57:18;;;;;;;;;;;19.70;90.00;;;;;;5014411;28;19926;-86
2022/06/03 09:59:51;;;;;;;;;;;19.70;89.70;;;;;;5024937;28;20325;-86
2022/06/03 10:02:18;;;;;;;;;;;19.70;89.40;;;;;;5040616;28;19925;-86
2022/06/03 10:04:45;;;;;;;;;;;19.70;89.30;;;;;;5024700;28;19933;-86
2022/06/03 10:07:12;;;;;;;;;;;19.60;89.30;;;;;;5022218;28;19929;-85
2022/06/03 10:18:01;;;;;;;;;;;19.60;90.40;;;;;;5031970;28;19925;-88
2022/06/03 10:20:29;;;;;;;;;;;19.60;90.50;;;;;;5029526;28;19933;-86
2022/06/03 10:22:56;;;;;;;;;;;19.60;90.60;;;;;;5029916;28;19930;-83
2022/06/03 10:25:26;;;;;;;;;;;19.60;90.60;;;;;;5037065;28;19948;-82
2022/06/03 10:27:53;;;;;;;;;;;19.60;90.60;;;;;;5030789;28;19996;-80
2022/06/03 10:30:27;;;;;;;;;;;19.60;90.50;;;;;;5032267;28;19979;-81
2022/06/03 10:32:54;;;;;;;;;;;19.60;91.00;;;;;;5018009;28;19925;-86
2022/06/03 10:35:26;;;;;;;;;;;19.60;90.80;;;;;;5021656;28;19940;-87
2022/06/03 10:37:57;;;;;;;;;;;19.60;91.00;;;;;;5025204;28;19974;-80
2022/06/03 10:40:31;;;;;;;;;;;19.60;91.10;;;;;;5026021;28;20012;-87
2022/06/03 10:43:00;;;;;;;;;;;19.60;91.10;;;;;;5048720;28;19979;-80
2022/06/03 10:45:31;;;;;;;;;;;19.70;91.70;;;;;;5025327;28;19925;-83
2022/06/03 10:47:58;;;;;;;;;;;19.70;91.10;;;;;;5021799;28;19926;-80
2022/06/03 10:50:38;;;;;;;;;;;19.70;91.10;;;;;;5033931;28;19937;-88
2022/06/03 11:01:29;;;;;;;;;;;19.70;91.50;;;;;;5027284;28;19925;-91
2022/06/03 11:03:58;;;;;;;;;;;19.70;91.50;;;;;;5005124;28;20016;-81
2022/06/03 11:06:32;;;;;;;;;;;19.80;91.40;;;;;;5000831;28;20294;-81
2022/06/03 11:08:59;;;;;;;;;;;19.80;91.40;;;;;;4997057;28;19975;-84
2022/06/03 11:11:29;;;;;;;;;;;19.80;91.40;;;;;;5002106;28;19925;-82
2022/06/03 11:13:56;;;;;;;;;;;19.90;91.50;;;;;;5013321;28;20313;-90
2022/06/03 11:16:25;;;;;;;;;;;19.90;91.60;;;;;;5015832;28;20377;-90
2022/06/03 11:18:52;;;;;;;;;;;19.90;91.60;;;;;;5014561;28;19937;-81
2022/06/03 11:21:27;;;;;;;;;;;19.90;91.70;;;;;;5006307;28;19929;-82
2022/06/03 11:23:59;;;;;;;;;;;19.90;91.70;;;;;;5005900;28;19995;-83
2022/06/03 11:26:35;;;;;;;;;;;20.00;91.70;;;;;;5015168;28;19925;-85
2022/06/03 11:29:08;;;;;;;;;;;20.00;91.70;;;;;;5029015;28;19996;-87
2022/06/03 11:31:37;;;;;;;;;;;20.00;92.20;;;;;;5024532;23;19964;-84
2022/06/03 11:34:04;;;;;;;;;;;20.10;91.90;;;;;;5041561;28;19929;-86
2022/06/03 11:36:36;;;;;;;;;;;20.10;91.80;;;;;;5053747;28;20616;-86
2022/06/03 11:39:09;;;;;;;;;;;20.20;91.70;;;;;;5055614;28;19925;-79
2022/06/03 11:41:43;;;;;;;;;;;20.20;91.40;;;;;;5056747;28;19924;-81
2022/06/03 11:44:16;;;;;;;;;;;20.30;91.30;;;;;;5058535;23;19932;-84
2022/06/03 11:46:45;;;;;;;;;;;20.30;91.10;;;;;;5050547;28;19933;-87
2022/06/03 11:49:14;;;;;;;;;;;20.40;91.00;;;;;;5052015;28;19954;-83
2022/06/03 11:51:41;;;;;;;;;;;20.40;90.90;;;;;;5068742;28;19924;-82
2022/06/03 11:54:11;;;;;;;;;;;20.50;90.80;;;;;;5063400;23;19925;-82
2022/06/03 11:56:38;;;;;;;;;;;20.60;90.70;;;;;;5071511;28;19924;-83
2022/06/03 11:59:18;;;;;;;;;;;20.60;90.70;;;;;;5077138;28;19928;-83
2022/06/03 12:01:48;;;;;;;;;;;20.60;90.70;;;;;;5075140;28;19978;-79
2022/06/03 12:04:15;;;;;;;;;;;20.60;90.60;;;;;;5060695;28;19928;-83
2022/06/03 12:06:45;;;;;;;;;;;20.60;90.70;;;;;;5052299;28;20321;-86
2022/06/03 12:09:21;;;;;;;;;;;20.60;90.70;;;;;;5056962;28;19925;-86
2022/06/03 12:14:36;;;;;;;;;;;20.60;90.90;;;;;;5053358;28;19936;-82
2022/06/03 12:17:05;;;;;;;;;;;20.50;91.20;;;;;;5044961;23;19952;-83
2022/06/03 12:19:35;;;;;;;;;;;20.60;91.20;;;;;;5035760;28;19975;-85
2022/06/03 12:22:29;;;;;;;;;;;20.60;91.10;;;;;;5039481;28;19925;-79
2022/06/03 12:25:34;;;;;;;;;;;20.60;91.00;;;;;;5032327;28;19971;-83
2022/06/03 12:28:02;;;;;;;;;;;20.60;91.00;;;;;;5044527;28;20278;-79
2022/06/03 12:30:35;;;;;;;;;;;20.70;90.90;;;;;;5032279;28;20060;-82
2022/06/03 12:33:05;;;;;;;;;;;20.70;90.80;;;;;;5027706;28;20060;-82
2022/06/03 12:35:41;;;;;;;;;;;20.80;91.20;;;;;;5026463;23;19975;-83
2022/06/03 12:38:24;;;;;;;;;;;20.80;90.80;;;;;;5029499;28;19964;-84
2022/06/03 12:43:44;;;;;;;;;;;20.90;90.50;;;;;;5069494;28;19935;-84
2022/06/03 12:46:31;;;;;;;;;;;20.90;90.40;;;;;;5052645;28;19935;-83
2022/06/03 12:48:58;;;;;;;;;;;20.90;90.20;;;;;;5049825;28;19924;-84
2022/06/03 12:51:29;;;;;;;;;;;20.90;90.20;;;;;;5067905;28;19990;-79
2022/06/03 12:54:04;;;;;;;;;;;20.90;90.60;;;;;;5054785;28;19928;-83
2022/06/03 12:56:35;;;;;;;;;;;21.00;90.50;;;;;;5044952;28;20388;-82
2022/06/03 12:59:04;;;;;;;;;;;21.00;91.00;;;;;;5042803;28;20395;-82
2022/06/03 13:01:41;;;;;;;;;;;21.10;91.00;;;;;;5056549;28;19928;-82
2022/06/03 13:04:38;;;;;;;;;;;21.10;90.90;;;;;;5056361;28;20457;-80
2022/06/03 13:07:16;;;;;;;;;;;21.20;91.30;;;;;;5035922;28;20293;-82
2022/06/03 13:10:01;;;;;;;;;;;21.20;91.20;;;;;;5034376;28;19925;-83
2022/06/03 13:12:31;;;;;;;;;;;21.20;91.00;;;;;;5043908;28;19925;-79
2022/06/03 13:15:16;;;;;;;;;;;21.30;90.70;;;;;;5034705;28;19925;-82
2022/06/03 13:18:13;;;;;;;;;;;21.30;90.60;;;;;;5037281;28;20356;-83
2022/06/03 13:20:43;;;;;;;;;;;21.30;90.70;;;;;;5036535;28;19932;-82
2022/06/03 13:23:19;;;;;;;;;;;21.40;90.30;;;;;;5036874;28;19929;-82
2022/06/03 13:25:47;;;;;;;;;;;21.30;90.20;;;;;;5044821;28;20328;-78
2022/06/03 13:28:37;;;;;;;;;;;21.30;90.10;;;;;;5036475;28;19924;-82
2022/06/03 13:31:07;;;;;;;;;;;21.30;90.10;;;;;;5039844;28;20023;-83
2022/06/03 13:33:54;;;;;;;;;;;21.30;90.40;;;;;;5041314;28;20340;-82
2022/06/03 13:36:34;;;;;;;;;;;21.30;90.30;;;;;;5047073;28;19974;-82
2022/06/03 13:39:02;;;;;;;;;;;21.30;90.40;;;;;;5038607;28;20438;-80
2022/06/03 13:44:41;;;;;;;;;;;21.30;90.60;;;;;;5053824;28;20292;-84
2022/06/03 13:47:34;;;;;;;;;;;21.40;90.40;;;;;;5029503;28;19928;-84
2022/06/03 13:50:01;;;;;;;;;;;21.40;90.40;;;;;;5013932;28;20348;-85
2022/06/03 13:52:28;;;;;;;;;;;21.40;90.30;;;;;;5061315;23;19924;-79
2022/06/03 13:55:04;;;;;;;;;;;21.40;90.50;;;;;;5039785;28;19939;-83
2022/06/03 13:57:36;;;;;;;;;;;21.40;90.50;;;;;;5052083;28;19931;-85
2022/06/03 14:00:26;;;;;;;;;;;21.30;90.10;;;;;;5053544;28;19951;-82
2022/06/03 14:03:05;;;;;;;;;;;21.30;90.00;;;;;;5040560;28;19924;-83
2022/06/03 14:06:07;;;;;;;;;;;21.30;89.20;;;;;;5054224;28;19978;-84
2022/06/03 14:08:38;;;;;;;;;;;21.20;89.30;;;;;;4990938;28;19930;-79
2022/06/03 14:11:04;;;;;;;;;;;21.20;89.10;;;;;;5036275;28;19932;-86
2022/06/03 14:13:46;;;;;;;;;;;21.20;89.60;;;;;;5046309;28;20327;-83
2022/06/03 14:16:22;;;;;;;;;;;21.20;89.20;;;;;;5073275;28;20422;-85
2022/06/03 14:18:52;;;;;;;;;;;21.20;89.10;;;;;;5047337;28;19968;-85
2022/06/03 14:21:37;;;;;;;;;;;21.10;89.40;;;;;;5056416;28;20011;-80
2022/06/03 14:24:04;;;;;;;;;;;21.10;89.40;;;;;;5053461;28;19978;-82
2022/06/03 14:26:34;;;;;;;;;;;21.10;89.50;;;;;;5044146;28;19964;-80
2022/06/03 14:29:10;;;;;;;;;;;21.10;89.60;;;;;;5051690;28;19974;-88
2022/06/03 14:31:50;;;;;;;;;;;21.00;89.90;;;;;;5066735;28;19924;-86
2022/06/03 14:34:20;;;;;;;;;;;21.00;90.30;;;;;;5065625;28;19929;-81
2022/06/03 14:36:49;;;;;;;;;;;21.00;91.10;;;;;;5046617;28;19970;-85
2022/06/03 14:39:23;;;;;;;;;;;20.90;91.10;;;;;;5049097;28;19932;-88
2022/06/03 14:41:53;;;;;;;;;;;20.90;91.10;;;;;;5045726;28;19933;-83
2022/06/03 14:44:22;;;;;;;;;;;20.90;90.90;;;;;;5044549;28;19955;-87
2022/06/03 14:46:53;;;;;;;;;;;20.80;90.90;;;;;;5042081;28;19971;-84
2022/06/03 14:49:24;;;;;;;;;;;20.80;90.80;;;;;;5049376;28;19933;-86
2022/06/03 14:51:58;;;;;;;;;;;20.90;90.70;;;;;;5053317;28;19928;-82
2022/06/03 14:54:34;;;;;;;;;;;20.90;90.60;;;;;;5042893;28;19933;-86
2022/06/03 14:57:03;;;;;;;;;;;20.90;90.50;;;;;;5048676;28;19925;-86
2022/06/03 14:59:29;;;;;;;;;;;20.90;90.40;;;;;;5053283;28;19925;-89
2022/06/03 15:02:01;;;;;;;;;;;20.90;90.20;;;;;;5043217;28;19955;-81
2022/06/03 15:04:43;;;;;;;;;;;20.80;90.20;;;;;;5056222;28;19924;-80
2022/06/03 15:07:15;;;;;;;;;;;20.80;90.20;;;;;;5057888;28;19936;-81
2022/06/03 15:09:44;;;;;;;;;;;20.70;90.30;;;;;;5045150;28;20388;-82
2022/06/03 15:12:16;;;;;;;;;;;20.70;90.30;;;;;;5051013;28;20377;-80
2022/06/03 15:14:44;;;;;;;;;;;20.70;90.30;;;;;;5070382;28;19924;-87
2022/06/03 15:17:11;;;;;;;;;;;20.70;90.40;;;;;;5044308;28;19933;-86
2022/06/03 15:19:41;;;;;;;;;;;20.70;90.30;;;;;;5050316;28;19931;-88
2022/06/03 15:22:14;;;;;;;;;;;20.70;90.40;;;;;;5044123;28;19971;-79
2022/06/03 15:24:46;;;;;;;;;;;20.70;90.30;;;;;;5050966;28;19924;-86
2022/06/03 15:27:14;;;;;;;;;;;20.70;90.30;;;;;;5053076;28;19924;-80
2022/06/03 15:29:41;;;;;;;;;;;20.70;90.10;;;;;;5049735;28;19954;-80
2022/06/03 15:32:09;;;;;;;;;;;20.70;90.10;;;;;;5049065;28;19933;-89
2022/06/03 15:34:36;;;;;;;;;;;20.70;90.10;;;;;;5066304;28;19979;-86
2022/06/03 15:37:03;;;;;;;;;;;20.70;90.00;;;;;;5059898;28;19924;-81
2022/06/03 15:39:35;;;;;;;;;;;20.60;89.90;;;;;;5054704;28;19935;-82
2022/06/03 15:42:23;;;;;;;;;;;20.60;89.90;;;;;;5046631;28;19924;-85
2022/06/03 15:44:49;;;;;;;;;;;20.60;90.20;;;;;;5049339;28;20321;-81
2022/06/03 15:47:30;;;;;;;;;;;20.60;90.20;;;;;;5068346;28;19924;-80